createdAt,value
2018-06-22T00:00:03.339Z,36.90
2018-06-22T00:02:35.128Z,35.50
2018-06-22T00:05:06.976Z,33.57
2018-06-22T00:07:38.536Z,35.70
2018-06-22T00:10:10.396Z,38.73
2018-06-22T00:12:42.241Z,38.00
2018-06-22T00:15:14.063Z,40.97
2018-06-22T00:17:45.655Z,40.97
2018-06-22T00:20:17.436Z,38.17
2018-06-22T00:22:49.143Z,39.63
2018-06-22T00:25:21.446Z,41.33
2018-06-22T00:27:53.206Z,40.03
2018-06-22T00:30:24.155Z,40.10
2018-06-22T00:32:55.807Z,40.07
2018-06-22T00:35:27.823Z,40.37
2018-06-22T00:37:59.522Z,39.30
2018-06-22T00:40:31.127Z,40.87
2018-06-22T00:43:02.735Z,39.70
2018-06-22T00:45:34.900Z,41.60
2018-06-22T00:48:05.582Z,40.03
2018-06-22T00:50:36.671Z,43.60
2018-06-22T00:53:16.772Z,41.03
2018-06-22T00:55:48.499Z,42.10
2018-06-22T00:58:21.273Z,44.00
2018-06-22T01:00:53.181Z,42.77
2018-06-22T01:03:24.579Z,43.03
2018-06-22T01:05:56.543Z,40.70
2018-06-22T01:08:28.169Z,40.70
2018-06-22T01:11:00.342Z,42.73
2018-06-22T01:13:32.051Z,42.63
2018-06-22T01:16:03.610Z,41.03
2018-06-22T01:18:35.258Z,40.10
2018-06-22T01:21:06.238Z,40.00
2018-06-22T01:23:37.866Z,41.10
2018-06-22T01:26:09.803Z,40.93
2018-06-22T01:28:40.700Z,41.83
2018-06-22T01:31:12.982Z,43.00
2018-06-22T01:33:44.574Z,41.63
2018-06-22T01:36:16.133Z,41.07
2018-06-22T01:38:47.879Z,44.27
2018-06-22T01:41:19.859Z,45.10
2018-06-22T01:43:51.226Z,45.50
2018-06-22T01:46:23.361Z,42.97
2018-06-22T01:48:54.835Z,46.63
2018-06-22T01:51:26.635Z,47.37
2018-06-22T01:53:58.207Z,47.53
2018-06-22T01:56:30.049Z,49.47
2018-06-22T01:59:01.923Z,49.33
2018-06-22T02:01:33.640Z,47.20
2018-06-22T02:04:05.429Z,52.13
2018-06-22T02:06:37.937Z,50.20
2018-06-22T02:09:12.822Z,49.07
2018-06-22T02:11:45.295Z,51.10
2018-06-22T02:14:16.834Z,52.10
2018-06-22T02:16:48.542Z,49.60
2018-06-22T02:19:20.100Z,53.17
2018-06-22T02:21:52.324Z,52.90
2018-06-22T02:24:23.833Z,53.10
2018-06-22T02:26:55.842Z,51.03
2018-06-22T02:29:27.548Z,52.90
2018-06-22T02:31:59.295Z,52.30
2018-06-22T02:34:31.398Z,54.07
2018-06-22T02:37:03.881Z,53.77
2018-06-22T02:39:35.459Z,52.97
2018-06-22T02:42:08.316Z,55.57
2018-06-22T02:44:40.305Z,55.10
2018-06-22T02:47:12.037Z,52.70
2018-06-22T02:49:43.244Z,52.33
2018-06-22T02:52:15.249Z,51.27
2018-06-22T02:54:46.879Z,52.43
2018-06-22T02:57:18.874Z,51.50
2018-06-22T02:59:52.274Z,45.93
2018-06-22T03:02:24.131Z,48.83
2018-06-22T03:04:54.761Z,48.90
2018-06-22T03:07:27.047Z,45.53
2018-06-22T03:09:58.797Z,46.80
2018-06-22T03:12:30.529Z,48.20
2018-06-22T03:15:02.293Z,44.40
2018-06-22T03:17:34.630Z,41.17
2018-06-22T03:20:06.150Z,37.73
2018-06-22T03:22:37.879Z,39.03
2018-06-22T03:25:09.665Z,38.53
2018-06-22T03:27:40.907Z,34.30
2018-06-22T03:30:12.706Z,34.90
2018-06-22T03:32:44.819Z,32.27
2018-06-22T03:35:16.198Z,33.30
2018-06-22T03:37:47.881Z,30.07
2018-06-22T03:40:18.754Z,28.93
2018-06-22T03:42:50.237Z,26.00
2018-06-22T03:45:21.934Z,24.23
2018-06-22T03:47:53.649Z,24.03
2018-06-22T03:50:25.791Z,22.90
2018-06-22T03:52:57.627Z,23.77
2018-06-22T03:55:29.251Z,22.93
2018-06-22T03:58:00.265Z,25.30
2018-06-22T04:00:33.342Z,22.93
2018-06-22T04:03:06.109Z,21.97
2018-06-22T04:05:38.839Z,23.00
2018-06-22T04:08:10.164Z,24.70
2018-06-22T04:10:41.862Z,25.20
2018-06-22T04:13:14.049Z,25.30
2018-06-22T04:15:45.902Z,22.67
2018-06-22T04:18:18.179Z,20.90
2018-06-22T04:20:50.221Z,20.07
2018-06-22T04:23:22.408Z,20.23
2018-06-22T04:25:54.322Z,20.63
2018-06-22T04:28:26.555Z,19.73
2018-06-22T04:30:58.712Z,19.93
2018-06-22T04:33:30.913Z,17.80
2018-06-22T04:36:02.790Z,20.27
2018-06-22T04:38:34.877Z,20.03
2018-06-22T04:41:06.004Z,18.63
2018-06-22T04:43:37.859Z,18.80
2018-06-22T04:46:09.557Z,18.33
2018-06-22T04:48:41.800Z,20.10
2018-06-22T04:51:16.716Z,18.70
2018-06-22T04:53:48.718Z,18.60
2018-06-22T04:56:22.946Z,16.30
2018-06-22T04:58:53.899Z,17.40
2018-06-22T05:01:28.071Z,16.27
2018-06-22T05:03:59.568Z,15.00
2018-06-22T05:06:31.543Z,14.33
2018-06-22T05:09:05.870Z,14.83
2018-06-22T05:11:37.497Z,15.20
2018-06-22T05:14:09.345Z,14.10
2018-06-22T05:16:41.228Z,13.30
2018-06-22T05:19:12.927Z,14.70
2018-06-22T05:21:44.318Z,12.98
2018-06-22T05:24:16.166Z,13.40
2018-06-22T05:26:47.962Z,13.72
2018-06-22T05:29:19.690Z,14.75
2018-06-22T05:31:51.336Z,13.90
2018-06-22T05:34:23.256Z,13.10
2018-06-22T05:36:54.906Z,11.00
2018-06-22T05:39:26.968Z,12.40
2018-06-22T05:41:58.371Z,11.00
2018-06-22T05:44:30.437Z,11.50
2018-06-22T05:47:02.170Z,10.05
2018-06-22T05:49:34.360Z,10.00
2018-06-22T05:52:06.127Z,10.00
2018-06-22T05:54:37.957Z,8.80
2018-06-22T05:57:09.469Z,8.75
2018-06-22T05:59:41.651Z,8.55
2018-06-22T06:02:14.525Z,8.63
2018-06-22T06:04:46.441Z,9.53
2018-06-22T06:07:17.971Z,9.33
2018-06-22T06:09:49.928Z,9.83
2018-06-22T06:12:21.685Z,9.80
2018-06-22T06:14:53.985Z,9.43
2018-06-22T06:17:25.847Z,8.73
2018-06-22T06:19:58.116Z,9.10
2018-06-22T06:22:29.843Z,10.33
2018-06-22T06:25:00.972Z,8.97
2018-06-22T06:27:32.707Z,7.90
2018-06-22T06:30:03.766Z,7.72
2018-06-22T06:32:35.425Z,8.80
2018-06-22T06:35:07.334Z,7.95
2018-06-22T06:37:39.265Z,7.92
2018-06-22T06:40:11.565Z,7.92
2018-06-22T06:42:43.460Z,8.65
2018-06-22T06:45:14.521Z,9.03
2018-06-22T06:47:46.203Z,7.35
2018-06-22T06:50:17.503Z,7.12
2018-06-22T06:52:49.193Z,6.45
2018-06-22T06:55:21.179Z,8.00
2018-06-22T06:57:52.944Z,7.42
2018-06-22T07:00:25.590Z,6.62
2018-06-22T07:02:58.474Z,6.00
2018-06-22T07:05:30.515Z,6.55
2018-06-22T07:08:02.127Z,7.47
2018-06-22T07:10:38.603Z,7.12
2018-06-22T07:13:10.266Z,7.37
2018-06-22T07:15:42.790Z,5.87
2018-06-22T07:18:13.496Z,6.35
2018-06-22T07:20:45.587Z,6.60
2018-06-22T07:23:17.149Z,6.65
2018-06-22T07:25:48.982Z,5.87
2018-06-22T07:28:22.030Z,6.77
2018-06-22T07:30:53.129Z,6.27
2018-06-22T07:33:24.856Z,5.77
2018-06-22T07:35:56.424Z,6.30
2018-06-22T07:38:28.159Z,5.80
2018-06-22T07:40:59.821Z,6.15
2018-06-22T07:43:31.475Z,6.80
2018-06-22T07:46:03.203Z,6.30
2018-06-22T07:48:34.882Z,6.40
2018-06-22T07:51:06.787Z,6.50
2018-06-22T07:53:38.269Z,5.90
2018-06-22T07:56:10.074Z,5.20
2018-06-22T07:58:41.729Z,5.27
2018-06-22T08:01:13.675Z,6.97
2018-06-22T08:03:46.310Z,7.27
2018-06-22T08:06:17.993Z,7.33
2018-06-22T08:08:49.785Z,7.17
2018-06-22T08:11:21.569Z,7.73
2018-06-22T08:13:53.675Z,6.63
2018-06-22T08:16:24.933Z,6.90
2018-06-22T08:18:55.624Z,7.10
2018-06-22T08:21:27.470Z,8.40
2018-06-22T08:23:59.015Z,7.40
2018-06-22T08:26:30.669Z,7.13
2018-06-22T08:29:02.343Z,7.50
2018-06-22T08:31:34.456Z,6.70
2018-06-22T08:34:05.296Z,6.77
2018-06-22T08:36:36.334Z,5.77
2018-06-22T08:39:10.569Z,6.20
2018-06-22T08:41:43.070Z,5.77
2018-06-22T08:44:14.899Z,6.40
2018-06-22T08:46:45.786Z,7.33
2018-06-22T08:49:17.767Z,6.90
2018-06-22T08:51:49.475Z,6.60
2018-06-22T08:54:20.354Z,6.93
2018-06-22T08:56:52.476Z,6.57
2018-06-22T08:59:23.920Z,6.73
2018-06-22T09:01:55.855Z,6.70
2018-06-22T09:04:28.963Z,6.13
2018-06-22T09:07:00.894Z,6.23
2018-06-22T09:09:32.532Z,6.37
2018-06-22T09:12:04.366Z,6.43
2018-06-22T09:14:35.143Z,6.33
2018-06-22T09:17:07.072Z,6.23
2018-06-22T09:19:38.720Z,7.00
2018-06-22T09:22:10.722Z,6.10
2018-06-22T09:24:42.384Z,6.40
2018-06-22T09:27:14.098Z,6.50
2018-06-22T09:29:45.755Z,6.20
2018-06-22T09:32:17.646Z,7.00
2018-06-22T09:34:49.311Z,5.70
2018-06-22T09:37:21.036Z,7.30
2018-06-22T09:39:52.845Z,6.17
2018-06-22T09:42:24.815Z,6.27
2018-06-22T09:44:56.652Z,6.43
2018-06-22T09:47:28.336Z,6.13
2018-06-22T09:49:59.990Z,5.90
2018-06-22T09:52:32.558Z,6.00
2018-06-22T09:55:04.061Z,6.73
2018-06-22T09:57:36.139Z,6.17
2018-06-22T10:00:07.718Z,6.00
2018-06-22T10:02:39.341Z,6.90
2018-06-22T10:05:12.050Z,7.23
2018-06-22T10:07:44.191Z,7.80
2018-06-22T10:10:15.560Z,5.70
2018-06-22T10:12:47.125Z,6.43
2018-06-22T10:15:18.873Z,7.13
2018-06-22T10:17:54.411Z,6.23
2018-06-22T10:20:26.058Z,7.40
2018-06-22T10:22:58.215Z,6.20
2018-06-22T10:25:29.981Z,6.53
2018-06-22T10:28:01.675Z,7.07
2018-06-22T10:30:33.388Z,7.00
2018-06-22T10:33:05.366Z,6.57
2018-06-22T10:35:36.997Z,6.60
2018-06-22T10:38:08.849Z,6.87
2018-06-22T10:40:40.453Z,7.60
2018-06-22T10:43:12.460Z,6.70
2018-06-22T10:45:44.134Z,7.40
2018-06-22T10:48:16.032Z,6.47
2018-06-22T10:50:47.694Z,7.37
2018-06-22T10:53:19.448Z,7.43
2018-06-22T10:55:50.451Z,7.00
2018-06-22T10:58:22.272Z,7.43
2018-06-22T11:00:53.738Z,6.80
2018-06-22T11:03:25.768Z,6.63
2018-06-22T11:05:57.827Z,6.70
2018-06-22T11:08:29.787Z,7.37
2018-06-22T11:11:01.471Z,8.27
2018-06-22T11:13:33.580Z,7.70
2018-06-22T11:16:05.013Z,8.00
2018-06-22T11:18:36.613Z,6.93
2018-06-22T11:21:08.263Z,7.00
2018-06-22T11:23:40.493Z,7.00
2018-06-22T11:26:12.083Z,7.47
2018-06-22T11:28:43.930Z,7.90
2018-06-22T11:31:15.857Z,7.80
2018-06-22T11:33:47.950Z,6.23
2018-06-22T11:36:19.856Z,6.97
2018-06-22T11:38:51.939Z,7.70
2018-06-22T11:41:23.762Z,8.00
2018-06-22T11:43:55.609Z,6.97
2018-06-22T11:46:27.230Z,6.17
2018-06-22T11:48:58.956Z,7.43
2018-06-22T11:51:30.749Z,7.60
2018-06-22T11:54:02.792Z,7.57
2018-06-22T11:56:34.715Z,7.60
2018-06-22T11:59:06.811Z,7.93
2018-06-22T12:01:37.701Z,7.17
2018-06-22T12:04:09.762Z,7.50
2018-06-22T12:06:42.306Z,7.30
2018-06-22T12:09:14.349Z,7.97
2018-06-22T12:11:46.126Z,8.03
2018-06-22T12:14:18.267Z,7.90
2018-06-22T12:16:50.149Z,7.20
2018-06-22T12:19:22.834Z,8.00
2018-06-22T12:21:54.461Z,8.00
2018-06-22T12:24:26.423Z,8.43
2018-06-22T12:26:57.850Z,8.43
2018-06-22T12:29:29.557Z,8.40
2018-06-22T12:32:01.448Z,7.77
2018-06-22T12:34:33.586Z,7.93
2018-06-22T12:37:05.293Z,8.53
2018-06-22T12:39:37.144Z,7.90
2018-06-22T12:42:08.101Z,7.60
2018-06-22T12:44:40.214Z,7.63
2018-06-22T12:47:11.765Z,8.50
2018-06-22T12:49:43.603Z,7.93
2018-06-22T12:52:15.307Z,8.50
2018-06-22T12:54:47.233Z,8.17
2018-06-22T12:57:19.076Z,7.30
2018-06-22T12:59:50.678Z,9.20
2018-06-22T13:02:22.231Z,8.73
2018-06-22T13:04:53.114Z,9.90
2018-06-22T13:07:26.285Z,9.33
2018-06-22T13:09:58.116Z,8.10
2018-06-22T13:12:29.004Z,9.47
2018-06-22T13:15:01.061Z,9.60
2018-06-22T13:17:32.670Z,8.57
2018-06-22T13:20:04.525Z,9.80
2018-06-22T13:22:36.504Z,9.00
2018-06-22T13:25:08.588Z,8.83
2018-06-22T13:27:39.889Z,9.60
2018-06-22T13:30:11.908Z,9.97
2018-06-22T13:32:43.559Z,10.33
2018-06-22T13:35:15.137Z,10.77
2018-06-22T13:37:46.938Z,9.17
2018-06-22T13:40:19.087Z,9.70
2018-06-22T13:42:50.824Z,8.77
2018-06-22T13:45:22.455Z,9.63
2018-06-22T13:47:53.165Z,10.33
2018-06-22T13:50:25.205Z,9.63
2018-06-22T13:52:56.847Z,10.60
2018-06-22T13:55:28.978Z,9.90
2018-06-22T13:58:00.543Z,9.43
2018-06-22T14:00:32.690Z,11.43
2018-06-22T14:03:03.441Z,9.37
2018-06-22T14:05:38.948Z,9.93
2018-06-22T14:08:11.793Z,9.80
2018-06-22T14:10:43.861Z,10.60
2018-06-22T14:13:15.775Z,10.40
2018-06-22T14:15:47.462Z,11.00
2018-06-22T14:18:19.715Z,11.50
2018-06-22T14:20:51.175Z,10.93
2018-06-22T14:23:23.057Z,10.67
2018-06-22T14:25:54.971Z,11.40
2018-06-22T14:28:26.571Z,11.67
2018-06-22T14:30:58.632Z,9.53
2018-06-22T14:33:30.912Z,9.93
2018-06-22T14:36:02.365Z,11.23
2018-06-22T14:38:34.039Z,10.30
2018-06-22T14:41:06.065Z,12.03
2018-06-22T14:43:37.797Z,11.00
2018-06-22T14:46:10.093Z,11.90
2018-06-22T14:48:41.824Z,12.50
2018-06-22T14:51:14.225Z,11.30
2018-06-22T14:53:50.727Z,13.53
2018-06-22T14:56:27.676Z,12.47
2018-06-22T15:00:07.429Z,12.47
2018-06-22T15:02:44.663Z,13.20
2018-06-22T15:05:21.417Z,13.87
2018-06-22T15:07:57.438Z,11.80
2018-06-22T15:10:29.978Z,13.10
2018-06-22T15:13:01.634Z,13.30
2018-06-22T15:15:33.299Z,14.97
2018-06-22T15:18:05.376Z,14.97
2018-06-22T15:20:37.243Z,14.10
2018-06-22T15:23:08.970Z,15.90
2018-06-22T15:25:40.597Z,14.37
2018-06-22T15:28:11.508Z,16.07
2018-06-22T15:30:43.100Z,15.30
2018-06-22T15:33:19.879Z,14.40
2018-06-22T15:35:56.336Z,14.40
2018-06-22T15:38:33.070Z,14.13
2018-06-22T15:41:09.521Z,14.60
2018-06-22T15:44:44.725Z,16.53
2018-06-22T15:47:21.480Z,14.50
2018-06-22T15:49:58.136Z,16.17
2018-06-22T15:52:34.530Z,16.73
2018-06-22T15:55:09.287Z,15.40
2018-06-22T15:57:40.260Z,16.17
2018-06-22T16:00:13.656Z,16.67
2018-06-22T16:02:50.108Z,16.27
2018-06-22T16:05:22.350Z,14.90
2018-06-22T16:07:54.370Z,15.97
2018-06-22T16:10:26.142Z,15.43
2018-06-22T16:13:00.315Z,15.40
2018-06-22T16:15:37.558Z,15.70
2018-06-22T16:18:13.997Z,14.03
2018-06-22T16:20:50.973Z,14.37
2018-06-22T16:23:27.367Z,14.13
2018-06-22T16:26:04.411Z,14.27
2018-06-22T16:28:36.145Z,14.60
2018-06-22T16:31:08.141Z,15.73
2018-06-22T16:33:44.271Z,14.27
2018-06-22T16:36:16.022Z,15.20
2018-06-22T16:38:47.597Z,13.77
2018-06-22T16:41:19.435Z,13.73
2018-06-22T16:43:51.511Z,12.70
2018-06-22T16:46:23.603Z,13.37
2018-06-22T16:48:55.483Z,16.23
2018-06-22T16:51:27.245Z,14.13
2018-06-22T16:53:58.826Z,12.27
2018-06-22T16:56:30.823Z,14.93
2018-06-22T16:59:03.066Z,14.40
2018-06-22T17:01:35.069Z,13.77
2018-06-22T17:04:05.734Z,13.90
2018-06-22T17:06:42.640Z,12.40
2018-06-22T17:09:19.194Z,12.63
2018-06-22T17:11:57.129Z,14.20
2018-06-22T17:14:32.499Z,13.07
2018-06-22T17:17:09.403Z,13.53
2018-06-22T17:19:41.507Z,13.47
2018-06-22T17:22:13.596Z,13.97
2018-06-22T17:24:45.540Z,14.30
2018-06-22T17:27:17.869Z,12.20
2018-06-22T17:29:49.781Z,12.33
2018-06-22T17:32:21.971Z,14.40
2018-06-22T17:34:54.083Z,14.37
2018-06-22T17:37:27.027Z,13.87
2018-06-22T17:39:58.781Z,12.57
2018-06-22T17:42:30.879Z,12.43
2018-06-22T17:45:02.931Z,14.23
2018-06-22T17:47:35.009Z,13.17
2018-06-22T17:50:11.673Z,13.20
2018-06-22T17:52:43.625Z,12.97
2018-06-22T17:55:15.367Z,12.43
2018-06-22T17:57:47.412Z,12.80
2018-06-22T18:00:23.950Z,13.80
2018-06-22T18:02:59.546Z,13.57
2018-06-22T18:05:35.995Z,12.97
2018-06-22T18:08:13.050Z,13.70
2018-06-22T18:10:49.770Z,12.80
2018-06-22T18:13:22.517Z,12.50
2018-06-22T18:15:54.415Z,12.43
2018-06-22T18:18:26.022Z,13.73
2018-06-22T18:20:57.975Z,14.30
2018-06-22T18:23:30.534Z,13.40
2018-06-22T18:26:02.242Z,12.23
2018-06-22T18:28:35.294Z,12.77
2018-06-22T18:31:07.111Z,11.87
2018-06-22T18:33:39.728Z,12.27
2018-06-22T18:36:11.327Z,12.63
2018-06-22T18:38:44.167Z,12.80
2018-06-22T18:41:16.148Z,13.23
2018-06-22T18:43:52.415Z,13.20
2018-06-22T18:46:24.261Z,12.70
2018-06-22T18:48:56.472Z,12.67
2018-06-22T18:51:28.471Z,12.23
2018-06-22T18:55:07.429Z,13.40
2018-06-22T18:57:44.201Z,11.20
2018-06-22T19:00:20.549Z,11.60
2018-06-22T19:02:57.123Z,11.60
2018-06-22T19:05:29.104Z,10.97
2018-06-22T19:08:00.793Z,11.90
2018-06-22T19:10:32.803Z,12.73
2018-06-22T19:13:04.597Z,12.40
2018-06-22T19:15:37.706Z,12.80
2018-06-22T19:18:09.459Z,12.50
2018-06-22T19:20:41.912Z,12.07
2018-06-22T19:23:13.794Z,13.20
2018-06-22T19:25:44.898Z,10.97
2018-06-22T19:28:16.547Z,12.10
2018-06-22T19:30:49.388Z,12.33
2018-06-22T19:33:21.063Z,12.00
2018-06-22T19:35:52.199Z,12.03
2018-06-22T19:38:24.144Z,12.93
2018-06-22T19:40:56.219Z,11.90
2018-06-22T19:43:32.949Z,11.70
2018-06-22T19:46:09.771Z,11.47
2018-06-22T19:48:48.230Z,11.70
2018-06-22T19:51:25.058Z,12.10
2018-06-22T19:54:01.113Z,12.63
2018-06-22T19:56:33.069Z,12.37
2018-06-22T19:59:04.727Z,12.03
2018-06-22T20:01:36.755Z,12.97
2018-06-22T20:04:08.886Z,12.50
2018-06-22T20:06:41.149Z,12.20
2018-06-22T20:09:12.928Z,12.97
2018-06-22T20:11:45.068Z,13.27
2018-06-22T20:14:17.367Z,12.90
2018-06-22T20:16:50.348Z,11.90
2018-06-22T20:19:22.287Z,12.30
2018-06-22T20:21:54.259Z,13.13
2018-06-22T20:24:30.750Z,15.20
2018-06-22T20:27:02.715Z,15.20
2018-06-22T20:29:34.563Z,15.00
2018-06-22T20:32:09.863Z,15.13
2018-06-22T20:34:46.344Z,15.37
2018-06-22T20:37:22.924Z,16.33
2018-06-22T20:39:59.563Z,16.60
2018-06-22T20:42:36.490Z,16.73
2018-06-22T20:45:13.349Z,15.03
2018-06-22T20:47:50.094Z,15.57
2018-06-22T20:50:27.031Z,15.47
2018-06-22T20:52:59.387Z,15.37
2018-06-22T20:55:31.282Z,15.23
2018-06-22T20:58:02.202Z,16.07
2018-06-22T21:00:33.856Z,15.10
2018-06-22T21:03:05.767Z,15.13
2018-06-22T21:05:37.563Z,15.17
2018-06-22T21:08:09.575Z,15.43
2018-06-22T21:10:41.560Z,15.23
2018-06-22T21:13:13.922Z,14.50
2018-06-22T21:15:44.878Z,16.03
2018-06-22T21:18:18.599Z,16.97
2018-06-22T21:20:55.509Z,16.87
2018-06-22T21:23:27.725Z,16.57
2018-06-22T21:25:59.670Z,17.77
2018-06-22T21:28:36.383Z,20.50
2018-06-22T21:31:12.836Z,19.13
2018-06-22T21:33:49.325Z,18.07
2018-06-22T21:36:25.842Z,19.33
2018-06-22T21:39:00.978Z,20.57
2018-06-22T21:41:32.750Z,18.87
2018-06-22T21:44:05.311Z,19.27
2018-06-22T21:46:37.101Z,18.10
2018-06-22T21:49:09.203Z,15.90
2018-06-22T21:51:41.027Z,17.43
2018-06-22T21:54:13.091Z,18.13
2018-06-22T21:56:44.930Z,17.43
2018-06-22T21:59:17.672Z,17.40
2018-06-22T22:01:49.457Z,17.40
2018-06-22T22:04:20.600Z,16.80
2018-06-22T22:06:52.423Z,17.47
2018-06-22T22:09:24.399Z,16.70
2018-06-22T22:11:56.640Z,16.53
2018-06-22T22:14:28.655Z,17.90
2018-06-22T22:17:00.628Z,16.97
2018-06-22T22:19:34.867Z,15.70
2018-06-22T22:22:06.625Z,14.50
2018-06-22T22:24:38.803Z,16.13
2018-06-22T22:27:10.486Z,13.93
2018-06-22T22:29:41.681Z,15.30
2018-06-22T22:32:12.967Z,15.07
2018-06-22T22:34:45.691Z,14.20
2018-06-22T22:37:17.536Z,13.70
2018-06-22T22:39:49.731Z,15.23
2018-06-22T22:42:21.479Z,15.07
2018-06-22T22:44:53.570Z,16.30
2018-06-22T22:47:25.330Z,15.70
2018-06-22T22:49:57.258Z,13.10
2018-06-22T22:52:28.998Z,15.07
2018-06-22T22:55:00.805Z,14.97
2018-06-22T22:57:33.183Z,14.23
2018-06-22T23:00:05.510Z,14.40
2018-06-22T23:02:37.057Z,12.67
2018-06-22T23:05:08.189Z,15.87
2018-06-22T23:07:39.806Z,15.50
2018-06-22T23:10:12.006Z,14.63
2018-06-22T23:12:43.753Z,16.13
2018-06-22T23:15:15.839Z,15.97
2018-06-22T23:17:47.786Z,14.03
2018-06-22T23:20:21.077Z,14.10
2018-06-22T23:23:02.710Z,13.90
2018-06-22T23:25:34.669Z,13.90
2018-06-22T23:28:06.591Z,13.87
2018-06-22T23:30:38.515Z,14.60
2018-06-22T23:33:10.266Z,15.23
2018-06-22T23:35:42.057Z,12.80
2018-06-22T23:38:13.883Z,14.93
2018-06-22T23:40:45.909Z,14.90
2018-06-22T23:43:17.946Z,15.03
2018-06-22T23:45:49.938Z,14.67
2018-06-22T23:48:21.871Z,15.60
2018-06-22T23:50:53.817Z,14.60
2018-06-22T23:53:25.914Z,14.37
2018-06-22T23:55:58.169Z,16.00
2018-06-22T23:58:30.042Z,14.80
